Time;durP1;ratioP1;P1;durP2;ratioP2;P2;SDS_P1;SDS_P2;PMS_P1;PMS_P2;Temp;Humidity;BMP_temperature;BMP_pressure;BME280_temperature;BME280_humidity;BME280_pressure;Samples;Min_cycle;Max_cycle;Signal;HPM_P1;HPM_P2
2023/07/27 00:00:10;;;;;;;10.23;7.10;;;12.40;91.20;;;;;;5003948;28;20095;-69
2023/07/27 00:02:36;;;;;;;13.30;6.93;;;12.40;91.40;;;;;;5005435;28;20075;-69
2023/07/27 00:05:03;;;;;;;11.87;6.30;;;12.40;91.20;;;;;;5003156;28;20296;-69
2023/07/27 00:07:29;;;;;;;11.53;6.83;;;12.40;91.30;;;;;;5024691;28;20300;-69
2023/07/27 00:09:55;;;;;;;10.87;7.20;;;12.40;91.40;;;;;;5040333;28;20322;-69
2023/07/27 00:12:26;;;;;;;11.13;6.77;;;12.40;91.30;;;;;;5031084;28;20326;-69
2023/07/27 00:14:52;;;;;;;12.13;6.47;;;12.40;91.40;;;;;;5043242;28;20148;-70
2023/07/27 00:17:18;;;;;;;13.57;6.80;;;12.40;91.40;;;;;;5038359;28;20383;-70
2023/07/27 00:19:44;;;;;;;11.13;6.80;;;12.40;91.50;;;;;;5047289;28;20072;-70
2023/07/27 00:22:10;;;;;;;13.17;7.13;;;12.40;91.50;;;;;;5050775;28;20319;-68
2023/07/27 00:24:35;;;;;;;12.07;6.40;;;12.40;91.70;;;;;;5042528;28;20036;-68
2023/07/27 00:27:01;;;;;;;12.90;6.70;;;12.50;91.80;;;;;;5043824;28;20128;-68
2023/07/27 00:29:27;;;;;;;12.50;6.43;;;12.50;91.60;;;;;;5042738;28;20057;-68
2023/07/27 00:31:53;;;;;;;11.90;6.90;;;12.50;91.50;;;;;;5053275;28;20045;-70
2023/07/27 00:34:27;;;;;;;12.38;6.53;;;12.50;91.40;;;;;;5030285;28;20047;-70
2023/07/27 00:36:53;;;;;;;11.50;6.73;;;12.50;91.40;;;;;;5051804;28;20052;-70
2023/07/27 00:39:19;;;;;;;9.40;6.20;;;12.50;91.40;;;;;;5037955;28;20060;-70
2023/07/27 00:41:45;;;;;;;12.20;6.40;;;12.60;91.40;;;;;;5042026;28;20044;-70
2023/07/27 00:44:11;;;;;;;12.83;7.23;;;12.60;91.30;;;;;;5049458;28;20332;-70
2023/07/27 00:46:37;;;;;;;10.30;6.27;;;12.60;91.50;;;;;;5044304;28;20052;-70
2023/07/27 00:49:04;;;;;;;12.17;7.03;;;12.60;91.50;;;;;;5051508;28;20728;-70
2023/07/27 00:51:35;;;;;;;11.13;6.93;;;12.70;91.40;;;;;;5050828;28;20310;-70
2023/07/27 00:54:02;;;;;;;10.73;6.33;;;12.70;91.40;;;;;;5052244;28;20788;-70
2023/07/27 00:56:30;;;;;;;12.13;6.37;;;12.70;91.40;;;;;;5051077;28;20291;-68
2023/07/27 00:58:59;;;;;;;10.17;6.17;;;12.70;91.50;;;;;;5049659;28;20318;-68
2023/07/27 01:01:25;;;;;;;10.50;6.57;;;12.70;91.30;;;;;;5045979;28;20716;-68
2023/07/27 01:03:51;;;;;;;10.27;6.47;;;12.70;91.50;;;;;;5041125;28;20328;-68
2023/07/27 01:06:17;;;;;;;11.90;6.37;;;12.70;91.50;;;;;;5050206;28;20383;-69
2023/07/27 01:08:43;;;;;;;9.93;6.33;;;12.70;91.40;;;;;;5047174;28;20851;-70
2023/07/27 01:11:17;;;;;;;8.77;6.13;;;12.70;91.40;;;;;;5044722;28;20091;-69
2023/07/27 01:13:54;;;;;;;10.57;6.13;;;12.70;91.30;;;;;;5054363;28;20378;-69
2023/07/27 01:16:31;;;;;;;9.53;5.80;;;12.70;91.40;;;;;;5048904;28;20279;-68
2023/07/27 01:19:18;;;;;;;9.07;5.67;;;12.70;91.20;;;;;;5042938;28;20276;-68
2023/07/27 01:21:48;;;;;;;10.17;6.70;;;12.70;91.10;;;;;;5047203;28;20303;-68
2023/07/27 01:24:38;;;;;;;8.53;5.70;;;12.70;91.10;;;;;;5046277;28;20280;-68
2023/07/27 01:27:33;;;;;;;8.80;5.87;;;12.60;91.20;;;;;;5043650;28;20283;-68
2023/07/27 01:30:27;;;;;;;8.73;5.33;;;12.60;91.10;;;;;;5028564;28;20840;-68
2023/07/27 01:33:28;;;;;;;9.63;6.10;;;12.70;91.10;;;;;;5054430;28;20287;-68
2023/07/27 01:36:09;;;;;;;10.07;6.30;;;12.70;91.10;;;;;;5037686;28;20767;-68
2023/07/27 01:38:43;;;;;;;10.77;6.70;;;12.70;90.90;;;;;;5044209;28;20769;-68
2023/07/27 01:41:11;;;;;;;8.90;6.07;;;12.70;90.80;;;;;;5024816;28;20291;-68
2023/07/27 01:43:39;;;;;;;8.90;6.03;;;12.70;90.70;;;;;;5047243;28;20057;-68
2023/07/27 01:46:06;;;;;;;10.07;6.07;;;12.70;90.70;;;;;;5046366;28;20702;-68
2023/07/27 01:48:33;;;;;;;9.13;5.87;;;12.80;90.60;;;;;;5039532;28;20335;-68
2023/07/27 01:51:00;;;;;;;9.13;5.93;;;12.80;90.60;;;;;;5049743;28;20743;-68
2023/07/27 01:53:28;;;;;;;11.40;6.23;;;12.80;90.50;;;;;;5043722;28;20878;-69
2023/07/27 01:55:54;;;;;;;10.10;6.07;;;12.80;90.50;;;;;;5048053;28;20287;-69
2023/07/27 01:58:21;;;;;;;9.63;6.07;;;12.80;90.60;;;;;;5027082;28;20827;-69
2023/07/27 02:00:49;;;;;;;7.93;6.00;;;12.90;90.70;;;;;;5035705;28;20315;-69
2023/07/27 02:03:15;;;;;;;8.70;5.93;;;12.90;90.60;;;;;;5043847;28;20391;-68
2023/07/27 02:05:41;;;;;;;9.63;6.40;;;12.90;90.60;;;;;;5056671;28;20298;-68
2023/07/27 02:08:07;;;;;;;10.80;5.93;;;12.90;90.50;;;;;;5036954;28;20835;-68
2023/07/27 02:10:34;;;;;;;10.93;6.17;;;12.90;90.60;;;;;;5046252;28;20045;-68
2023/07/27 02:13:10;;;;;;;7.73;5.60;;;13.00;90.50;;;;;;5037464;28;20084;-69
2023/07/27 02:15:46;;;;;;;9.20;5.80;;;13.00;90.70;;;;;;5046309;28;20286;-69
2023/07/27 02:18:19;;;;;;;9.70;6.40;;;13.00;90.70;;;;;;5039945;28;20791;-68
2023/07/27 02:20:46;;;;;;;9.70;5.60;;;13.00;90.70;;;;;;5031875;28;20280;-68
2023/07/27 02:23:13;;;;;;;8.00;5.67;;;13.00;90.60;;;;;;5029940;28;20387;-68
2023/07/27 02:25:39;;;;;;;10.40;6.20;;;13.10;90.60;;;;;;5037198;28;20362;-68
2023/07/27 02:28:05;;;;;;;10.03;6.00;;;13.10;90.60;;;;;;5046364;28;20322;-68
2023/07/27 02:30:30;;;;;;;10.97;5.87;;;13.10;90.90;;;;;;5035573;28;20315;-68
2023/07/27 02:32:56;;;;;;;9.70;6.23;;;13.10;90.80;;;;;;5046308;28;20048;-68
2023/07/27 02:35:22;;;;;;;8.67;5.60;;;13.10;90.70;;;;;;5036164;28;20035;-68
2023/07/27 02:37:47;;;;;;;9.57;5.57;;;13.20;90.70;;;;;;5018082;28;20124;-68
2023/07/27 02:40:13;;;;;;;8.60;5.97;;;13.20;90.70;;;;;;5039768;28;20033;-68
2023/07/27 02:42:39;;;;;;;9.53;6.20;;;13.20;90.70;;;;;;5037108;28;20033;-69
2023/07/27 02:45:05;;;;;;;13.50;6.43;;;13.20;90.80;;;;;;5046641;28;20033;-69
2023/07/27 02:47:30;;;;;;;10.47;6.40;;;13.30;90.70;;;;;;5041831;28;20633;-69
2023/07/27 02:49:56;;;;;;;10.70;6.23;;;13.30;90.80;;;;;;5045620;28;20300;-69
2023/07/27 02:52:22;;;;;;;13.60;6.37;;;13.30;90.90;;;;;;5041330;28;20033;-69
2023/07/27 02:54:47;;;;;;;10.17;6.20;;;13.30;91.10;;;;;;5030006;28;20070;-69
2023/07/27 02:57:13;;;;;;;10.50;6.80;;;13.30;91.10;;;;;;5044016;28;20501;-69
2023/07/27 02:59:39;;;;;;;11.93;7.10;;;13.30;91.30;;;;;;5033501;28;20037;-69
2023/07/27 03:02:05;;;;;;;11.03;6.80;;;13.40;91.50;;;;;;5040023;28;20804;-68
2023/07/27 03:04:30;;;;;;;9.80;6.77;;;13.40;91.40;;;;;;5039861;28;20412;-68
2023/07/27 03:06:56;;;;;;;14.17;7.03;;;13.40;91.70;;;;;;5029932;28;20323;-68
2023/07/27 03:09:22;;;;;;;11.40;7.23;;;13.50;91.90;;;;;;5032360;28;20502;-68
2023/07/27 03:11:49;;;;;;;11.43;7.47;;;13.50;92.30;;;;;;5039874;28;20110;-68
2023/07/27 03:14:15;;;;;;;10.07;6.93;;;13.50;92.20;;;;;;5032107;28;20164;-68
2023/07/27 03:16:41;;;;;;;11.10;7.17;;;13.50;92.00;;;;;;5033403;28;20847;-68
2023/07/27 03:19:06;;;;;;;11.77;7.60;;;13.50;92.10;;;;;;5042045;28;20381;-68
2023/07/27 03:21:32;;;;;;;10.83;6.90;;;13.50;92.20;;;;;;5040764;28;20040;-68
2023/07/27 03:23:58;;;;;;;13.50;7.17;;;13.50;92.80;;;;;;5042350;28;20037;-68
2023/07/27 03:26:23;;;;;;;10.73;7.40;;;13.50;92.60;;;;;;5015003;28;20772;-69
2023/07/27 03:28:49;;;;;;;11.80;8.03;;;13.60;92.60;;;;;;5035026;28;20029;-69
2023/07/27 03:31:19;;;;;;;11.40;7.10;;;13.60;92.90;;;;;;5046278;28;20071;-69
2023/07/27 03:33:45;;;;;;;12.47;7.77;;;13.60;93.00;;;;;;5040427;28;20412;-68
2023/07/27 03:36:12;;;;;;;13.43;8.37;;;13.60;93.00;;;;;;5030797;28;20276;-68
2023/07/27 03:38:38;;;;;;;13.37;8.10;;;13.60;93.50;;;;;;5034232;28;20291;-68
2023/07/27 03:41:04;;;;;;;13.97;8.43;;;13.60;93.60;;;;;;5042330;28;20292;-69
2023/07/27 03:43:30;;;;;;;14.97;8.33;;;13.60;93.90;;;;;;5040442;28;20037;-69
2023/07/27 03:45:55;;;;;;;15.53;8.50;;;13.60;94.20;;;;;;5043683;28;20410;-69
2023/07/27 03:48:21;;;;;;;15.20;8.43;;;13.60;94.40;;;;;;5037200;28;20124;-69
2023/07/27 03:50:46;;;;;;;14.83;8.73;;;13.60;94.40;;;;;;5035629;28;20037;-69
2023/07/27 03:53:12;;;;;;;17.20;9.30;;;13.60;94.70;;;;;;5045713;28;20047;-69
2023/07/27 03:55:38;;;;;;;17.03;9.80;;;13.60;94.70;;;;;;5046874;28;20063;-69
2023/07/27 03:58:04;;;;;;;16.27;9.60;;;13.60;95.20;;;;;;5039081;28;20060;-69
2023/07/27 04:00:29;;;;;;;19.07;9.63;;;13.70;95.30;;;;;;5040581;28;20076;-69
2023/07/27 04:02:55;;;;;;;16.63;9.33;;;13.70;95.60;;;;;;5046495;28;20024;-69
2023/07/27 04:05:21;;;;;;;17.10;10.23;;;13.70;95.60;;;;;;5044575;28;20121;-69
2023/07/27 04:07:51;;;;;;;16.93;10.67;;;13.60;95.80;;;;;;5044455;28;20041;-69
2023/07/27 04:10:17;;;;;;;15.37;9.57;;;13.60;96.00;;;;;;5045589;28;20455;-69
2023/07/27 04:12:42;;;;;;;16.80;10.30;;;13.60;96.00;;;;;;5040470;28;20322;-69
2023/07/27 04:15:08;;;;;;;13.47;9.50;;;13.60;96.20;;;;;;5046478;28;20279;-69
2023/07/27 04:17:34;;;;;;;18.67;10.10;;;13.60;96.40;;;;;;5046462;28;20048;-69
2023/07/27 04:20:00;;;;;;;13.73;9.53;;;13.60;96.60;;;;;;5046460;28;20272;-69
2023/07/27 04:22:25;;;;;;;15.20;10.53;;;13.60;96.50;;;;;;5043483;28;21676;-70
2023/07/27 04:24:51;;;;;;;15.17;9.80;;;13.50;96.50;;;;;;5041068;28;20033;-69
2023/07/27 04:27:17;;;;;;;14.73;10.10;;;13.50;96.60;;;;;;5041324;28;20048;-69
2023/07/27 04:29:42;;;;;;;16.43;10.60;;;13.50;96.60;;;;;;5038970;28;20553;-69
2023/07/27 04:32:08;;;;;;;16.80;10.30;;;13.40;96.80;;;;;;5042493;28;20059;-69
2023/07/27 04:34:34;;;;;;;17.20;10.57;;;13.50;96.90;;;;;;5045134;28;20130;-69
2023/07/27 04:37:00;;;;;;;17.17;10.47;;;13.50;97.40;;;;;;5047834;28;20183;-69
2023/07/27 04:39:26;;;;;;;18.07;10.90;;;13.50;97.70;;;;;;5039719;28;20033;-69
2023/07/27 04:41:51;;;;;;;17.30;10.63;;;13.50;97.70;;;;;;5037250;28;20070;-69
2023/07/27 04:44:17;;;;;;;14.10;10.23;;;13.50;97.60;;;;;;5037331;28;20044;-69
2023/07/27 04:46:43;;;;;;;16.93;10.87;;;13.50;97.80;;;;;;5038863;28;20037;-69
2023/07/27 04:49:08;;;;;;;15.53;11.00;;;13.50;97.80;;;;;;5034662;28;20049;-70
2023/07/27 04:51:35;;;;;;;18.63;11.93;;;13.60;97.80;;;;;;5040113;28;20034;-69
2023/07/27 04:54:01;;;;;;;19.87;12.27;;;13.60;98.20;;;;;;5042974;28;20583;-69
2023/07/27 04:56:27;;;;;;;20.83;13.03;;;13.60;98.30;;;;;;5041093;28;20288;-70
2023/07/27 04:58:52;;;;;;;19.13;13.43;;;13.60;98.10;;;;;;5040068;28;20416;-70
2023/07/27 05:01:18;;;;;;;17.63;13.10;;;13.60;98.50;;;;;;5041011;28;20043;-70
2023/07/27 05:03:44;;;;;;;19.60;12.70;;;13.70;98.40;;;;;;5041610;28;20377;-69
2023/07/27 05:06:09;;;;;;;19.97;12.87;;;13.70;98.30;;;;;;5023277;28;20040;-69
2023/07/27 05:08:35;;;;;;;18.50;11.83;;;13.70;98.70;;;;;;5034268;28;20068;-70
2023/07/27 05:11:06;;;;;;;19.20;11.97;;;13.70;98.50;;;;;;5037522;28;20545;-69
2023/07/27 05:13:32;;;;;;;17.30;10.90;;;13.80;98.50;;;;;;5020911;28;20089;-70
2023/07/27 05:15:58;;;;;;;17.20;10.30;;;13.80;98.70;;;;;;5043677;28;21106;-70
2023/07/27 05:18:24;;;;;;;15.43;10.17;;;13.80;98.60;;;;;;5023614;28;20281;-70
2023/07/27 05:20:50;;;;;;;16.30;10.30;;;13.90;98.80;;;;;;5039934;28;20065;-70
2023/07/27 05:23:16;;;;;;;15.73;10.37;;;13.90;98.80;;;;;;5042738;28;20040;-70
2023/07/27 05:25:41;;;;;;;15.00;9.90;;;14.00;98.60;;;;;;5036436;28;20399;-70
2023/07/27 05:28:07;;;;;;;13.70;9.43;;;14.00;98.70;;;;;;5043787;28;20196;-70
2023/07/27 05:30:33;;;;;;;14.10;9.63;;;14.00;98.50;;;;;;5042777;28;20254;-70
2023/07/27 05:32:59;;;;;;;12.93;9.30;;;14.10;98.40;;;;;;5024443;28;20079;-70
2023/07/27 05:35:24;;;;;;;13.63;10.23;;;14.10;98.50;;;;;;5033589;28;20041;-70
2023/07/27 05:37:50;;;;;;;15.33;9.87;;;14.10;98.40;;;;;;5047175;28;20041;-70
2023/07/27 05:40:16;;;;;;;13.60;9.37;;;14.20;98.30;;;;;;5045979;28;20036;-70
2023/07/27 05:42:42;;;;;;;19.50;9.53;;;14.20;98.20;;;;;;5039246;28;20037;-70
2023/07/27 05:45:09;;;;;;;14.67;9.20;;;14.30;98.30;;;;;;5044157;28;20045;-70
2023/07/27 05:47:35;;;;;;;16.13;10.00;;;14.30;98.40;;;;;;5049406;28;20842;-70
2023/07/27 05:50:02;;;;;;;13.60;9.60;;;14.30;98.40;;;;;;5045576;28;20295;-70
2023/07/27 05:52:27;;;;;;;12.27;8.90;;;14.30;98.60;;;;;;5038322;28;20295;-70
2023/07/27 05:54:53;;;;;;;13.50;9.40;;;14.40;98.80;;;;;;5047511;28;20296;-70
2023/07/27 05:57:19;;;;;;;14.90;9.30;;;14.40;98.90;;;;;;5041920;28;20158;-70
2023/07/27 05:59:45;;;;;;;13.00;9.10;;;14.40;99.20;;;;;;5044455;28;20030;-70
2023/07/27 06:02:10;;;;;;;13.73;10.10;;;14.40;99.10;;;;;;5031713;28;20493;-70
2023/07/27 06:04:36;;;;;;;11.20;8.43;;;14.40;99.10;;;;;;5040424;28;20029;-70
2023/07/27 06:07:05;;;;;;;11.03;8.40;;;14.40;99.40;;;;;;5038359;28;20118;-70
2023/07/27 06:09:31;;;;;;;10.90;7.90;;;14.40;99.40;;;;;;5041518;28;20492;-70
2023/07/27 06:11:57;;;;;;;10.87;7.67;;;14.40;99.70;;;;;;5027237;28;20382;-70
2023/07/27 06:14:22;;;;;;;9.53;7.00;;;14.40;99.60;;;;;;5057575;28;20331;-70
2023/07/27 06:16:48;;;;;;;10.43;7.60;;;14.50;99.90;;;;;;5029761;28;20037;-70
2023/07/27 06:19:14;;;;;;;13.07;6.93;;;14.50;99.90;;;;;;5037115;28;20528;-70
2023/07/27 06:21:40;;;;;;;10.17;7.47;;;14.60;99.90;;;;;;5026480;28;20480;-70
2023/07/27 06:24:06;;;;;;;11.67;7.80;;;14.60;99.90;;;;;;5038580;28;20049;-70
2023/07/27 06:26:31;;;;;;;9.70;7.07;;;14.70;99.90;;;;;;5028824;28;20061;-70
2023/07/27 06:28:58;;;;;;;9.53;6.90;;;14.70;99.90;;;;;;5027679;28;20060;-70
2023/07/27 06:31:24;;;;;;;10.57;6.70;;;14.80;99.90;;;;;;5040103;28;20136;-70
2023/07/27 06:33:50;;;;;;;9.23;6.33;;;14.80;99.90;;;;;;5024600;28;20291;-70
2023/07/27 06:36:17;;;;;;;10.27;6.80;;;14.90;99.90;;;;;;5033661;28;20345;-70
2023/07/27 06:38:43;;;;;;;10.00;6.70;;;14.90;99.90;;;;;;5039766;28;20029;-70
2023/07/27 06:41:09;;;;;;;11.10;7.23;;;14.90;99.90;;;;;;5040181;28;20562;-70
2023/07/27 06:43:35;;;;;;;10.80;6.60;;;15.00;99.90;;;;;;5040738;28;20776;-70
2023/07/27 06:46:00;;;;;;;9.87;6.30;;;15.00;99.90;;;;;;5046574;28;20333;-70
2023/07/27 06:48:26;;;;;;;9.90;6.43;;;15.10;99.90;;;;;;5045309;28;20118;-70
2023/07/27 06:50:52;;;;;;;10.60;7.00;;;15.20;99.90;;;;;;5038540;28;20116;-70
2023/07/27 06:53:18;;;;;;;10.47;7.23;;;15.20;99.90;;;;;;5042407;28;20072;-70
2023/07/27 06:55:44;;;;;;;9.00;6.80;;;15.30;99.90;;;;;;5043177;28;20864;-70
2023/07/27 06:58:09;;;;;;;9.90;6.23;;;15.30;99.90;;;;;;5047908;28;20064;-70
2023/07/27 07:00:36;;;;;;;8.73;5.93;;;15.30;99.60;;;;;;5044361;28;20041;-70
2023/07/27 07:03:01;;;;;;;7.60;5.93;;;15.40;99.60;;;;;;5037308;28;20049;-70
2023/07/27 07:05:27;;;;;;;8.17;5.90;;;15.40;99.60;;;;;;5025598;28;20284;-70
2023/07/27 07:07:54;;;;;;;7.97;6.13;;;15.50;99.60;;;;;;5047125;28;20116;-70
2023/07/27 07:10:20;;;;;;;9.73;7.10;;;15.60;99.50;;;;;;5045155;28;20288;-70
2023/07/27 07:12:46;;;;;;;7.77;6.00;;;15.70;99.60;;;;;;5050429;28;20051;-70
2023/07/27 07:15:12;;;;;;;7.93;5.70;;;15.70;99.40;;;;;;5047052;28;20076;-70
2023/07/27 07:17:38;;;;;;;8.57;6.20;;;15.80;99.30;;;;;;5035019;28;20037;-70
2023/07/27 07:20:08;;;;;;;7.57;5.93;;;15.90;98.80;;;;;;5043861;28;20041;-70
2023/07/27 07:22:34;;;;;;;9.57;6.17;;;15.90;98.50;;;;;;5047652;28;20582;-70
2023/07/27 07:25:00;;;;;;;8.00;5.87;;;15.90;98.20;;;;;;5033079;28;20286;-70
2023/07/27 07:27:26;;;;;;;9.03;6.03;;;15.90;98.40;;;;;;5030925;28;20280;-70
2023/07/27 07:29:51;;;;;;;6.97;5.27;;;15.90;98.40;;;;;;5030416;28;20048;-70
2023/07/27 07:32:17;;;;;;;6.83;5.10;;;15.80;98.50;;;;;;5037831;28;20052;-70
2023/07/27 07:34:43;;;;;;;7.13;5.30;;;15.80;98.10;;;;;;5039388;28;20050;-70
2023/07/27 07:37:09;;;;;;;6.90;5.20;;;15.70;98.30;;;;;;5048920;28;20059;-70
2023/07/27 07:39:34;;;;;;;7.50;5.37;;;15.70;98.50;;;;;;5060496;28;20041;-71
2023/07/27 07:42:02;;;;;;;6.47;5.17;;;15.60;98.50;;;;;;5051245;28;20037;-72
2023/07/27 07:44:27;;;;;;;8.10;4.67;;;15.60;98.70;;;;;;5056428;28;20124;-72
2023/07/27 07:46:53;;;;;;;5.33;4.27;;;15.60;98.70;;;;;;5057780;28;20311;-72
2023/07/27 07:49:19;;;;;;;7.30;4.37;;;15.50;98.80;;;;;;5051823;28;20134;-72
2023/07/27 07:51:44;;;;;;;6.43;4.43;;;15.50;99.00;;;;;;5055607;28;20037;-72
2023/07/27 07:54:10;;;;;;;4.87;3.90;;;15.50;99.10;;;;;;5048246;28;20044;-72
2023/07/27 07:56:36;;;;;;;4.33;3.23;;;15.50;99.40;;;;;;5049242;28;20389;-71
2023/07/27 07:59:02;;;;;;;4.77;3.60;;;15.50;99.50;;;;;;5045185;28;20041;-72
2023/07/27 08:01:28;;;;;;;5.00;3.70;;;15.40;99.60;;;;;;5042897;28;20367;-72
2023/07/27 08:03:54;;;;;;;4.70;3.30;;;15.40;99.70;;;;;;5047052;28;20800;-72
2023/07/27 08:06:20;;;;;;;5.13;3.93;;;15.40;99.70;;;;;;5033209;28;20068;-71
2023/07/27 08:08:46;;;;;;;5.30;3.97;;;15.40;99.90;;;;;;5003630;28;20049;-72
2023/07/27 08:11:11;;;;;;;4.30;3.90;;;15.40;99.90;;;;;;4996499;28;20097;-72
2023/07/27 08:13:37;;;;;;;4.37;3.57;;;15.40;99.90;;;;;;5011760;28;20120;-71
2023/07/27 08:16:03;;;;;;;5.30;4.10;;;15.40;99.90;;;;;;5002757;28;20129;-71
2023/07/27 08:18:30;;;;;;;5.93;4.10;;;15.50;99.90;;;;;;5008228;28;20493;-71
2023/07/27 08:21:00;;;;;;;7.27;4.00;;;15.50;99.90;;;;;;4997752;28;20049;-71
2023/07/27 08:23:27;;;;;;;4.80;3.60;;;15.50;99.90;;;;;;4994254;28;20276;-71
2023/07/27 08:25:53;;;;;;;4.60;3.70;;;15.50;99.90;;;;;;5017625;28;20360;-72
2023/07/27 08:28:20;;;;;;;4.60;4.10;;;15.60;99.90;;;;;;4998834;28;20320;-72
2023/07/27 08:30:46;;;;;;;5.87;3.97;;;15.60;99.90;;;;;;5009032;28;20509;-71
2023/07/27 08:33:12;;;;;;;4.30;3.50;;;15.60;99.90;;;;;;4997651;28;20318;-71
2023/07/27 08:35:39;;;;;;;3.93;3.30;;;15.70;99.90;;;;;;5007683;28;20280;-72
2023/07/27 08:38:08;;;;;;;4.57;3.83;;;15.70;99.90;;;;;;4999858;28;20324;-72
2023/07/27 08:40:34;;;;;;;5.17;4.10;;;15.80;99.90;;;;;;5017498;28;20316;-72
2023/07/27 08:43:04;;;;;;;4.33;3.63;;;15.80;99.90;;;;;;5010527;28;20835;-72
2023/07/27 08:45:30;;;;;;;3.90;3.40;;;15.80;99.90;;;;;;4990257;28;20033;-72
2023/07/27 08:47:57;;;;;;;5.30;3.60;;;15.80;99.90;;;;;;4998675;28;20315;-72
2023/07/27 08:50:23;;;;;;;3.43;2.70;;;15.80;99.90;;;;;;5015100;28;20342;-73
2023/07/27 08:52:49;;;;;;;4.37;3.40;;;15.90;99.90;;;;;;5027715;28;20296;-72
2023/07/27 08:55:15;;;;;;;4.33;3.07;;;15.90;99.90;;;;;;5019132;28;20517;-72
2023/07/27 08:57:41;;;;;;;4.00;3.33;;;15.90;99.90;;;;;;5022603;28;20080;-72
2023/07/27 09:00:09;;;;;;;4.50;3.50;;;15.90;99.90;;;;;;5015522;28;20280;-71
2023/07/27 09:02:35;;;;;;;3.73;3.23;;;16.00;99.90;;;;;;5020687;28;20291;-72
2023/07/27 09:05:01;;;;;;;3.93;3.53;;;16.00;99.90;;;;;;5023657;28;21035;-72
2023/07/27 09:07:27;;;;;;;3.50;3.10;;;16.10;99.90;;;;;;5036583;28;20303;-72
2023/07/27 09:09:53;;;;;;;4.13;3.03;;;16.10;99.90;;;;;;5048122;28;20048;-72
2023/07/27 09:12:24;;;;;;;4.57;3.40;;;16.20;99.90;;;;;;5051494;28;20132;-73
2023/07/27 09:14:50;;;;;;;4.10;3.70;;;16.20;99.90;;;;;;5054195;28;20555;-71
2023/07/27 09:17:16;;;;;;;4.57;3.90;;;16.20;99.90;;;;;;5051028;28;20280;-72
2023/07/27 09:19:43;;;;;;;4.47;3.40;;;16.30;99.90;;;;;;5036153;28;20037;-72
2023/07/27 09:22:11;;;;;;;4.73;3.50;;;16.30;99.90;;;;;;5040578;28;20272;-72
2023/07/27 09:24:37;;;;;;;3.70;3.13;;;16.40;99.90;;;;;;5035364;28;20347;-72
2023/07/27 09:27:09;;;;;;;4.20;3.80;;;16.40;99.90;;;;;;5039939;28;20461;-72
2023/07/27 09:29:35;;;;;;;4.93;3.73;;;16.50;99.90;;;;;;5059787;28;20384;-69
2023/07/27 09:32:01;;;;;;;4.57;3.80;;;16.50;99.90;;;;;;5030214;28;20330;-71
2023/07/27 09:34:30;;;;;;;5.13;3.80;;;16.60;99.90;;;;;;5036322;28;20456;-71
2023/07/27 09:37:00;;;;;;;5.00;3.70;;;16.70;99.90;;;;;;5020809;28;20287;-69
2023/07/27 09:39:28;;;;;;;3.87;3.57;;;16.70;99.90;;;;;;5039550;28;20287;-71
2023/07/27 09:41:54;;;;;;;4.03;3.63;;;16.80;99.90;;;;;;5037353;28;20560;-71
2023/07/27 09:44:21;;;;;;;5.47;4.60;;;16.90;99.90;;;;;;5029364;28;20728;-71
2023/07/27 09:46:47;;;;;;;4.57;4.10;;;16.90;99.90;;;;;;5028985;28;20308;-71
2023/07/27 09:49:14;;;;;;;5.47;4.20;;;17.00;99.90;;;;;;5042509;28;20788;-71
2023/07/27 09:51:40;;;;;;;4.20;3.80;;;17.00;99.90;;;;;;5039388;28;20123;-71
2023/07/27 09:54:06;;;;;;;5.67;4.00;;;17.10;99.90;;;;;;5039183;28;20741;-71
2023/07/27 09:56:32;;;;;;;4.93;3.70;;;17.20;99.90;;;;;;5041819;28;20349;-71
2023/07/27 09:58:59;;;;;;;4.03;3.63;;;17.20;99.90;;;;;;5031083;28;20037;-72
2023/07/27 10:01:26;;;;;;;4.23;3.87;;;17.30;99.70;;;;;;5035858;28;20295;-71
2023/07/27 10:03:57;;;;;;;4.60;4.07;;;17.30;99.70;;;;;;5036390;28;20783;-71
2023/07/27 10:06:25;;;;;;;4.17;3.60;;;17.40;99.90;;;;;;5019617;28;20667;-71
2023/07/27 10:08:52;;;;;;;4.40;4.00;;;17.50;99.90;;;;;;5000052;28;20342;-71
2023/07/27 10:11:17;;;;;;;4.53;4.13;;;17.60;99.80;;;;;;5003552;28;20284;-71
2023/07/27 10:13:44;;;;;;;4.23;3.83;;;17.70;99.90;;;;;;4998734;28;20304;-71
2023/07/27 10:16:16;;;;;;;4.23;3.83;;;17.80;99.80;;;;;;5002059;28;20046;-71
2023/07/27 10:18:47;;;;;;;4.03;3.70;;;17.90;99.50;;;;;;5002657;28;20696;-71
2023/07/27 10:21:25;;;;;;;4.47;4.07;;;18.00;99.30;;;;;;4994036;28;20375;-71
2023/07/27 10:23:58;;;;;;;3.40;3.10;;;18.00;99.20;;;;;;4998229;28;20367;-71
2023/07/27 10:26:47;;;;;;;4.80;4.40;;;18.10;99.20;;;;;;5001019;28;20288;-71
2023/07/27 10:29:15;;;;;;;3.90;3.60;;;18.10;99.10;;;;;;4980975;28;20073;-71
2023/07/27 10:31:44;;;;;;;3.77;3.47;;;18.10;98.90;;;;;;4997143;28;20293;-71
2023/07/27 10:34:17;;;;;;;4.73;3.97;;;18.10;98.90;;;;;;4982653;28;20124;-71
2023/07/27 10:37:09;;;;;;;4.10;3.70;;;18.10;99.40;;;;;;4999194;28;20318;-71
2023/07/27 10:39:47;;;;;;;5.30;4.20;;;18.30;99.50;;;;;;5015153;28;20635;-71
2023/07/27 10:42:23;;;;;;;4.67;4.27;;;18.40;99.30;;;;;;5000060;28;20042;-71
2023/07/27 10:44:55;;;;;;;4.07;3.53;;;18.50;99.10;;;;;;5000901;28;20076;-71
2023/07/27 10:47:31;;;;;;;4.70;4.30;;;18.60;98.90;;;;;;4990317;28;20048;-71
2023/07/27 10:49:59;;;;;;;4.10;3.70;;;18.60;98.80;;;;;;5003163;28;20083;-71
2023/07/27 10:52:27;;;;;;;4.03;3.73;;;18.70;98.70;;;;;;4989054;28;20528;-71
2023/07/27 10:54:56;;;;;;;3.90;3.60;;;18.70;98.50;;;;;;4996989;28;20058;-71
2023/07/27 10:57:23;;;;;;;3.53;3.23;;;18.80;98.60;;;;;;5007063;28;20045;-71
2023/07/27 10:59:50;;;;;;;3.20;3.00;;;18.80;98.30;;;;;;5000503;28;20099;-71
2023/07/27 11:02:29;;;;;;;3.33;3.13;;;18.90;98.10;;;;;;4999820;28;20175;-71
2023/07/27 11:05:08;;;;;;;3.40;3.10;;;18.90;98.30;;;;;;5000718;28;20045;-71
2023/07/27 11:07:36;;;;;;;3.70;3.40;;;18.90;98.20;;;;;;5016066;28;20215;-71
2023/07/27 11:10:10;;;;;;;3.50;3.20;;;18.90;98.20;;;;;;5036215;28;20048;-71
2023/07/27 11:12:54;;;;;;;3.40;3.15;;;18.90;98.30;;;;;;5017048;28;20042;-71
2023/07/27 11:15:27;;;;;;;3.27;3.07;;;18.80;98.20;;;;;;5028846;28;20043;-72
2023/07/27 11:17:55;;;;;;;2.97;2.77;;;18.80;98.30;;;;;;5032847;28;20025;-72
2023/07/27 11:20:24;;;;;;;3.33;3.03;;;19.00;98.60;;;;;;5031357;28;20041;-72
2023/07/27 11:22:51;;;;;;;3.00;2.70;;;19.10;98.70;;;;;;5042819;28;20397;-72
2023/07/27 11:25:17;;;;;;;3.87;2.77;;;19.30;98.70;;;;;;5034039;28;20442;-72
2023/07/27 11:27:46;;;;;;;3.07;2.87;;;19.50;98.60;;;;;;5034596;28;20076;-72
2023/07/27 11:30:17;;;;;;;4.87;3.33;;;19.70;98.40;;;;;;5038035;28;20052;-72
2023/07/27 11:33:00;;;;;;;4.20;2.83;;;20.00;98.00;;;;;;5042525;28;20082;-72
2023/07/27 11:35:26;;;;;;;3.50;3.20;;;20.20;97.30;;;;;;5048222;28;20041;-73
2023/07/27 11:37:52;;;;;;;3.10;2.47;;;20.30;96.20;;;;;;5047673;28;20119;-73
2023/07/27 11:40:21;;;;;;;3.13;2.83;;;20.50;96.10;;;;;;5053285;28;20037;-73
2023/07/27 11:42:47;;;;;;;3.10;2.90;;;20.60;95.50;;;;;;5055984;28;20038;-73
2023/07/27 11:45:13;;;;;;;3.47;3.17;;;20.70;94.90;;;;;;5047464;28;20053;-72
2023/07/27 11:47:39;;;;;;;3.20;2.93;;;20.60;94.30;;;;;;5048296;28;20459;-72
2023/07/27 11:50:11;;;;;;;3.47;2.97;;;20.50;94.00;;;;;;5033793;28;20082;-71
2023/07/27 11:52:38;;;;;;;3.03;2.73;;;20.40;94.40;;;;;;5051179;28;20459;-73
2023/07/27 11:55:05;;;;;;;2.27;2.00;;;20.30;94.80;;;;;;5043091;28;20088;-72
2023/07/27 11:57:30;;;;;;;2.27;1.70;;;20.20;94.70;;;;;;5040231;28;20046;-73
2023/07/27 12:00:12;;;;;;;1.97;1.40;;;20.00;94.70;;;;;;5038861;28;20037;-73
2023/07/27 12:02:46;;;;;;;2.20;2.00;;;19.70;94.60;;;;;;5035191;28;20033;-72
2023/07/27 12:05:13;;;;;;;2.20;2.00;;;19.60;94.80;;;;;;5045016;28;20164;-73
2023/07/27 12:07:40;;;;;;;2.33;1.40;;;19.40;94.50;;;;;;5046278;28;20053;-73
2023/07/27 12:10:11;;;;;;;3.57;1.37;;;19.40;96.50;;;;;;5046511;28;20053;-73
2023/07/27 12:13:11;;;;;;;1.30;0.93;;;19.50;97.00;;;;;;5033452;28;20045;-73
2023/07/27 12:15:38;;;;;;;1.43;0.60;;;19.70;95.80;;;;;;4997223;28;20386;-74
2023/07/27 12:18:10;;;;;;;0.73;0.50;;;19.70;95.80;;;;;;5028491;28;20044;-73
2023/07/27 12:20:36;;;;;;;0.93;0.40;;;19.80;96.20;;;;;;5035919;28;20041;-73
2023/07/27 12:23:02;;;;;;;1.13;0.20;;;19.80;96.20;;;;;;5052617;28;20400;-73
2023/07/27 12:25:29;;;;;;;0.17;0.10;;;19.90;96.30;;;;;;5043604;28;20029;-73
2023/07/27 12:27:55;;;;;;;0.57;0.00;;;19.90;95.70;;;;;;5035991;28;20037;-72
2023/07/27 12:30:23;;;;;;;0.10;0.10;;;19.90;96.10;;;;;;5053056;28;20045;-73
2023/07/27 12:32:49;;;;;;;2.43;0.10;;;19.90;95.20;;;;;;5046217;28;20041;-72
2023/07/27 12:35:16;;;;;;;0.27;0.00;;;19.90;95.80;;;;;;5044443;28;20041;-71
2023/07/27 12:37:43;;;;;;;0.30;0.10;;;19.90;96.30;;;;;;5044063;28;20041;-72
2023/07/27 12:40:09;;;;;;;0.37;0.17;;;19.90;96.30;;;;;;5033837;28;20052;-72
2023/07/27 12:42:35;;;;;;;0.30;0.10;;;19.80;96.70;;;;;;5032851;28;20114;-72